sensor_id;sensor_type;location;lat;lon;timestamp;P1;durP1;ratioP1;P2;durP2;ratioP2
10725;SDS011;5414;59.782;16.378;2022-08-03T00:01:51;3.27;;;1.20;;
10725;SDS011;5414;59.782;16.378;2022-08-03T00:04:17;2.17;;;1.50;;
10725;SDS011;5414;59.782;16.378;2022-08-03T00:06:43;3.00;;;1.10;;
10725;SDS011;5414;59.782;16.378;2022-08-03T00:09:10;2.93;;;1.30;;
10725;SDS011;5414;59.782;16.378;2022-08-03T00:11:36;2.50;;;1.40;;
10725;SDS011;5414;59.782;16.378;2022-08-03T00:14:03;3.20;;;1.20;;
10725;SDS011;5414;59.782;16.378;2022-08-03T00:16:29;1.83;;;1.40;;
10725;SDS011;5414;59.782;16.378;2022-08-03T00:18:55;2.50;;;1.37;;
10725;SDS011;5414;59.782;16.378;2022-08-03T00:21:21;3.80;;;1.40;;
10725;SDS011;5414;59.782;16.378;2022-08-03T00:23:47;2.50;;;1.50;;
10725;SDS011;5414;59.782;16.378;2022-08-03T00:26:13;3.13;;;1.30;;
10725;SDS011;5414;59.782;16.378;2022-08-03T00:28:39;2.27;;;1.37;;
10725;SDS011;5414;59.782;16.378;2022-08-03T00:31:06;2.10;;;1.30;;
10725;SDS011;5414;59.782;16.378;2022-08-03T00:33:32;2.27;;;1.20;;
10725;SDS011;5414;59.782;16.378;2022-08-03T00:35:58;2.80;;;1.10;;
10725;SDS011;5414;59.782;16.378;2022-08-03T00:38:24;7.63;;;1.77;;
10725;SDS011;5414;59.782;16.378;2022-08-03T00:40:50;2.07;;;1.10;;
10725;SDS011;5414;59.782;16.378;2022-08-03T00:43:16;3.10;;;1.43;;
10725;SDS011;5414;59.782;16.378;2022-08-03T00:45:42;2.87;;;1.27;;
10725;SDS011;5414;59.782;16.378;2022-08-03T00:48:10;3.70;;;1.70;;
10725;SDS011;5414;59.782;16.378;2022-08-03T00:50:39;3.07;;;1.40;;
10725;SDS011;5414;59.782;16.378;2022-08-03T00:53:08;2.83;;;1.60;;
10725;SDS011;5414;59.782;16.378;2022-08-03T00:55:36;2.00;;;1.40;;
10725;SDS011;5414;59.782;16.378;2022-08-03T00:58:03;2.77;;;1.80;;
10725;SDS011;5414;59.782;16.378;2022-08-03T01:00:31;2.50;;;1.67;;
10725;SDS011;5414;59.782;16.378;2022-08-03T01:02:57;3.27;;;1.53;;
10725;SDS011;5414;59.782;16.378;2022-08-03T01:05:23;1.43;;;1.20;;
10725;SDS011;5414;59.782;16.378;2022-08-03T01:11:21;2.83;;;1.50;;
10725;SDS011;5414;59.782;16.378;2022-08-03T01:13:26;2.80;;;1.47;;
10725;SDS011;5414;59.782;16.378;2022-08-03T01:18:21;3.10;;;1.80;;
10725;SDS011;5414;59.782;16.378;2022-08-03T01:20:50;4.47;;;1.73;;
10725;SDS011;5414;59.782;16.378;2022-08-03T01:31:07;2.67;;;1.70;;
10725;SDS011;5414;59.782;16.378;2022-08-03T01:33:35;2.00;;;1.60;;
10725;SDS011;5414;59.782;16.378;2022-08-03T01:36:02;2.97;;;1.50;;
10725;SDS011;5414;59.782;16.378;2022-08-03T01:38:36;2.40;;;1.57;;
10725;SDS011;5414;59.782;16.378;2022-08-03T01:41:12;3.47;;;1.70;;
10725;SDS011;5414;59.782;16.378;2022-08-03T01:43:41;2.77;;;1.80;;
10725;SDS011;5414;59.782;16.378;2022-08-03T01:46:08;4.37;;;2.10;;
10725;SDS011;5414;59.782;16.378;2022-08-03T01:48:38;2.40;;;1.80;;
10725;SDS011;5414;59.782;16.378;2022-08-03T01:51:05;3.03;;;1.70;;
10725;SDS011;5414;59.782;16.378;2022-08-03T01:53:31;3.43;;;1.80;;
10725;SDS011;5414;59.782;16.378;2022-08-03T01:55:58;4.30;;;1.90;;
10725;SDS011;5414;59.782;16.378;2022-08-03T01:58:24;2.77;;;1.70;;
10725;SDS011;5414;59.782;16.378;2022-08-03T02:00:51;3.13;;;1.53;;
10725;SDS011;5414;59.782;16.378;2022-08-03T02:03:17;2.70;;;1.80;;
10725;SDS011;5414;59.782;16.378;2022-08-03T02:05:45;5.73;;;1.87;;
10725;SDS011;5414;59.782;16.378;2022-08-03T02:08:12;2.10;;;1.47;;
10725;SDS011;5414;59.782;16.378;2022-08-03T02:10:41;3.03;;;1.87;;
10725;SDS011;5414;59.782;16.378;2022-08-03T02:13:08;3.93;;;1.97;;
10725;SDS011;5414;59.782;16.378;2022-08-03T02:15:35;2.90;;;1.90;;
10725;SDS011;5414;59.782;16.378;2022-08-03T02:18:02;5.87;;;2.10;;
10725;SDS011;5414;59.782;16.378;2022-08-03T02:20:29;3.27;;;1.70;;
10725;SDS011;5414;59.782;16.378;2022-08-03T02:22:57;2.43;;;1.53;;
10725;SDS011;5414;59.782;16.378;2022-08-03T02:25:23;2.27;;;1.63;;
10725;SDS011;5414;59.782;16.378;2022-08-03T02:27:57;4.07;;;1.93;;
10725;SDS011;5414;59.782;16.378;2022-08-03T02:30:33;2.47;;;1.70;;
10725;SDS011;5414;59.782;16.378;2022-08-03T02:33:03;3.27;;;1.57;;
10725;SDS011;5414;59.782;16.378;2022-08-03T02:35:29;2.60;;;1.80;;
10725;SDS011;5414;59.782;16.378;2022-08-03T02:37:58;2.27;;;1.57;;
10725;SDS011;5414;59.782;16.378;2022-08-03T02:40:26;4.13;;;2.20;;
10725;SDS011;5414;59.782;16.378;2022-08-03T02:42:54;2.37;;;1.57;;
10725;SDS011;5414;59.782;16.378;2022-08-03T02:45:20;2.77;;;1.57;;
10725;SDS011;5414;59.782;16.378;2022-08-03T02:47:49;2.73;;;1.67;;
10725;SDS011;5414;59.782;16.378;2022-08-03T02:50:17;2.77;;;1.93;;
10725;SDS011;5414;59.782;16.378;2022-08-03T02:52:44;3.33;;;1.80;;
10725;SDS011;5414;59.782;16.378;2022-08-03T02:55:12;2.00;;;1.60;;
10725;SDS011;5414;59.782;16.378;2022-08-03T02:57:39;1.80;;;1.63;;
10725;SDS011;5414;59.782;16.378;2022-08-03T03:00:06;2.67;;;1.63;;
10725;SDS011;5414;59.782;16.378;2022-08-03T03:02:33;2.50;;;1.70;;
10725;SDS011;5414;59.782;16.378;2022-08-03T03:04:59;4.93;;;1.90;;
10725;SDS011;5414;59.782;16.378;2022-08-03T03:07:26;2.03;;;1.60;;
10725;SDS011;5414;59.782;16.378;2022-08-03T03:09:52;2.47;;;1.90;;
10725;SDS011;5414;59.782;16.378;2022-08-03T03:12:18;2.47;;;1.70;;
10725;SDS011;5414;59.782;16.378;2022-08-03T03:14:46;2.77;;;1.50;;
10725;SDS011;5414;59.782;16.378;2022-08-03T03:17:12;2.40;;;1.63;;
10725;SDS011;5414;59.782;16.378;2022-08-03T03:19:39;2.37;;;1.70;;
10725;SDS011;5414;59.782;16.378;2022-08-03T03:22:06;2.17;;;1.70;;
10725;SDS011;5414;59.782;16.378;2022-08-03T03:24:33;1.60;;;1.50;;
10725;SDS011;5414;59.782;16.378;2022-08-03T03:27:00;2.77;;;1.60;;
10725;SDS011;5414;59.782;16.378;2022-08-03T03:29:27;2.17;;;1.70;;
10725;SDS011;5414;59.782;16.378;2022-08-03T03:31:53;4.00;;;1.80;;
10725;SDS011;5414;59.782;16.378;2022-08-03T03:34:21;2.10;;;1.50;;
10725;SDS011;5414;59.782;16.378;2022-08-03T03:36:47;3.57;;;1.67;;
10725;SDS011;5414;59.782;16.378;2022-08-03T03:39:13;3.10;;;1.77;;
10725;SDS011;5414;59.782;16.378;2022-08-03T03:41:39;2.67;;;2.00;;
10725;SDS011;5414;59.782;16.378;2022-08-03T03:44:05;3.00;;;1.77;;
10725;SDS011;5414;59.782;16.378;2022-08-03T03:46:31;2.40;;;1.70;;
10725;SDS011;5414;59.782;16.378;2022-08-03T03:48:57;2.23;;;1.70;;
10725;SDS011;5414;59.782;16.378;2022-08-03T03:51:23;3.63;;;1.97;;
10725;SDS011;5414;59.782;16.378;2022-08-03T03:53:56;3.80;;;1.77;;
10725;SDS011;5414;59.782;16.378;2022-08-03T03:56:23;2.00;;;1.60;;
10725;SDS011;5414;59.782;16.378;2022-08-03T03:58:49;4.07;;;1.80;;
10725;SDS011;5414;59.782;16.378;2022-08-03T04:01:16;3.53;;;2.03;;
10725;SDS011;5414;59.782;16.378;2022-08-03T04:03:42;3.37;;;1.97;;
10725;SDS011;5414;59.782;16.378;2022-08-03T04:06:08;2.27;;;1.97;;
10725;SDS011;5414;59.782;16.378;2022-08-03T04:08:53;4.63;;;1.97;;
10725;SDS011;5414;59.782;16.378;2022-08-03T04:11:39;3.37;;;1.73;;
10725;SDS011;5414;59.782;16.378;2022-08-03T04:14:13;2.83;;;2.03;;
10725;SDS011;5414;59.782;16.378;2022-08-03T04:16:46;2.77;;;2.00;;
10725;SDS011;5414;59.782;16.378;2022-08-03T04:19:14;3.13;;;1.77;;
10725;SDS011;5414;59.782;16.378;2022-08-03T04:21:42;3.37;;;2.10;;
10725;SDS011;5414;59.782;16.378;2022-08-03T04:24:09;4.57;;;2.10;;
10725;SDS011;5414;59.782;16.378;2022-08-03T04:26:38;3.43;;;2.10;;
10725;SDS011;5414;59.782;16.378;2022-08-03T04:29:05;2.37;;;1.83;;
10725;SDS011;5414;59.782;16.378;2022-08-03T04:31:31;3.37;;;2.10;;
10725;SDS011;5414;59.782;16.378;2022-08-03T04:33:58;2.70;;;2.00;;
10725;SDS011;5414;59.782;16.378;2022-08-03T04:36:25;3.33;;;2.23;;
10725;SDS011;5414;59.782;16.378;2022-08-03T04:38:53;3.07;;;1.70;;
10725;SDS011;5414;59.782;16.378;2022-08-03T04:41:21;2.40;;;1.93;;
10725;SDS011;5414;59.782;16.378;2022-08-03T04:43:47;3.73;;;1.70;;
10725;SDS011;5414;59.782;16.378;2022-08-03T04:46:14;3.63;;;2.13;;
10725;SDS011;5414;59.782;16.378;2022-08-03T04:48:40;3.43;;;1.73;;
10725;SDS011;5414;59.782;16.378;2022-08-03T04:51:07;3.23;;;2.00;;
10725;SDS011;5414;59.782;16.378;2022-08-03T04:53:35;2.80;;;2.00;;
10725;SDS011;5414;59.782;16.378;2022-08-03T04:56:05;2.67;;;2.00;;
10725;SDS011;5414;59.782;16.378;2022-08-03T04:58:32;2.10;;;1.90;;
10725;SDS011;5414;59.782;16.378;2022-08-03T05:00:58;3.23;;;2.20;;
10725;SDS011;5414;59.782;16.378;2022-08-03T05:03:24;3.97;;;2.17;;
10725;SDS011;5414;59.782;16.378;2022-08-03T05:05:53;3.37;;;2.00;;
10725;SDS011;5414;59.782;16.378;2022-08-03T05:08:20;3.20;;;2.33;;
10725;SDS011;5414;59.782;16.378;2022-08-03T05:10:48;2.57;;;2.20;;
10725;SDS011;5414;59.782;16.378;2022-08-03T05:13:14;2.87;;;2.30;;
10725;SDS011;5414;59.782;16.378;2022-08-03T05:15:40;2.80;;;2.20;;
10725;SDS011;5414;59.782;16.378;2022-08-03T05:18:06;3.80;;;2.30;;
10725;SDS011;5414;59.782;16.378;2022-08-03T05:20:33;3.70;;;2.30;;
10725;SDS011;5414;59.782;16.378;2022-08-03T05:22:59;3.87;;;2.47;;
10725;SDS011;5414;59.782;16.378;2022-08-03T05:25:27;2.47;;;2.27;;
10725;SDS011;5414;59.782;16.378;2022-08-03T05:27:53;4.33;;;2.53;;
10725;SDS011;5414;59.782;16.378;2022-08-03T05:30:19;2.50;;;2.30;;
10725;SDS011;5414;59.782;16.378;2022-08-03T05:32:45;3.67;;;2.60;;
10725;SDS011;5414;59.782;16.378;2022-08-03T05:35:11;2.80;;;2.50;;
10725;SDS011;5414;59.782;16.378;2022-08-03T05:37:37;3.17;;;2.20;;
10725;SDS011;5414;59.782;16.378;2022-08-03T05:40:04;3.47;;;2.40;;
10725;SDS011;5414;59.782;16.378;2022-08-03T05:42:30;4.77;;;2.50;;
10725;SDS011;5414;59.782;16.378;2022-08-03T05:44:56;4.37;;;2.43;;
10725;SDS011;5414;59.782;16.378;2022-08-03T05:47:22;5.77;;;2.73;;
10725;SDS011;5414;59.782;16.378;2022-08-03T05:49:48;3.00;;;2.57;;
10725;SDS011;5414;59.782;16.378;2022-08-03T05:52:14;2.33;;;2.13;;
10725;SDS011;5414;59.782;16.378;2022-08-03T05:54:40;4.57;;;2.77;;
10725;SDS011;5414;59.782;16.378;2022-08-03T05:57:06;3.00;;;2.30;;
10725;SDS011;5414;59.782;16.378;2022-08-03T05:59:32;5.20;;;2.90;;
10725;SDS011;5414;59.782;16.378;2022-08-03T06:01:58;3.00;;;2.70;;
10725;SDS011;5414;59.782;16.378;2022-08-03T06:04:24;3.07;;;2.47;;
10725;SDS011;5414;59.782;16.378;2022-08-03T06:06:50;4.43;;;2.57;;
10725;SDS011;5414;59.782;16.378;2022-08-03T06:09:16;4.13;;;2.30;;
10725;SDS011;5414;59.782;16.378;2022-08-03T06:11:42;3.43;;;2.80;;
10725;SDS011;5414;59.782;16.378;2022-08-03T06:14:08;2.90;;;2.60;;
10725;SDS011;5414;59.782;16.378;2022-08-03T06:16:34;3.97;;;2.53;;
10725;SDS011;5414;59.782;16.378;2022-08-03T06:19:00;3.83;;;2.67;;
10725;SDS011;5414;59.782;16.378;2022-08-03T06:21:26;3.10;;;2.70;;
10725;SDS011;5414;59.782;16.378;2022-08-03T06:23:52;2.83;;;2.50;;
10725;SDS011;5414;59.782;16.378;2022-08-03T06:26:18;3.57;;;2.60;;
10725;SDS011;5414;59.782;16.378;2022-08-03T06:28:44;6.23;;;2.73;;
10725;SDS011;5414;59.782;16.378;2022-08-03T06:31:10;2.87;;;2.67;;
10725;SDS011;5414;59.782;16.378;2022-08-03T06:33:36;3.63;;;2.67;;
10725;SDS011;5414;59.782;16.378;2022-08-03T06:36:04;3.30;;;2.57;;
10725;SDS011;5414;59.782;16.378;2022-08-03T06:38:30;5.17;;;2.90;;
10725;SDS011;5414;59.782;16.378;2022-08-03T06:40:56;4.30;;;2.80;;
10725;SDS011;5414;59.782;16.378;2022-08-03T06:43:22;4.17;;;3.00;;
10725;SDS011;5414;59.782;16.378;2022-08-03T06:45:48;3.60;;;2.60;;
10725;SDS011;5414;59.782;16.378;2022-08-03T06:48:14;3.00;;;2.70;;
10725;SDS011;5414;59.782;16.378;2022-08-03T06:50:40;2.60;;;2.40;;
10725;SDS011;5414;59.782;16.378;2022-08-03T06:53:08;3.43;;;3.00;;
10725;SDS011;5414;59.782;16.378;2022-08-03T06:55:34;4.20;;;2.90;;
10725;SDS011;5414;59.782;16.378;2022-08-03T06:58:00;3.97;;;3.10;;
10725;SDS011;5414;59.782;16.378;2022-08-03T07:00:26;3.43;;;2.90;;
10725;SDS011;5414;59.782;16.378;2022-08-03T07:02:52;3.33;;;3.10;;
10725;SDS011;5414;59.782;16.378;2022-08-03T07:05:19;3.67;;;3.07;;
10725;SDS011;5414;59.782;16.378;2022-08-03T07:07:45;3.33;;;3.03;;
10725;SDS011;5414;59.782;16.378;2022-08-03T07:10:11;3.47;;;3.00;;
10725;SDS011;5414;59.782;16.378;2022-08-03T07:12:37;6.87;;;3.30;;
10725;SDS011;5414;59.782;16.378;2022-08-03T07:15:04;4.37;;;3.20;;
10725;SDS011;5414;59.782;16.378;2022-08-03T07:17:31;4.20;;;3.03;;
10725;SDS011;5414;59.782;16.378;2022-08-03T07:19:57;3.80;;;3.40;;
10725;SDS011;5414;59.782;16.378;2022-08-03T07:22:23;3.60;;;3.30;;
10725;SDS011;5414;59.782;16.378;2022-08-03T07:24:50;4.77;;;3.10;;
10725;SDS011;5414;59.782;16.378;2022-08-03T07:27:16;3.60;;;3.30;;
10725;SDS011;5414;59.782;16.378;2022-08-03T07:29:42;6.60;;;3.33;;
10725;SDS011;5414;59.782;16.378;2022-08-03T07:32:08;4.63;;;2.90;;
10725;SDS011;5414;59.782;16.378;2022-08-03T07:34:34;3.93;;;3.10;;
10725;SDS011;5414;59.782;16.378;2022-08-03T07:37:00;3.80;;;3.00;;
10725;SDS011;5414;59.782;16.378;2022-08-03T07:39:26;4.80;;;2.93;;
10725;SDS011;5414;59.782;16.378;2022-08-03T07:41:53;3.67;;;3.37;;
10725;SDS011;5414;59.782;16.378;2022-08-03T07:44:19;3.00;;;2.80;;
10725;SDS011;5414;59.782;16.378;2022-08-03T07:46:45;5.10;;;3.33;;
10725;SDS011;5414;59.782;16.378;2022-08-03T07:49:11;4.00;;;2.77;;
10725;SDS011;5414;59.782;16.378;2022-08-03T07:51:38;4.93;;;3.53;;
10725;SDS011;5414;59.782;16.378;2022-08-03T07:54:04;4.60;;;2.90;;
10725;SDS011;5414;59.782;16.378;2022-08-03T07:56:30;4.27;;;2.97;;
10725;SDS011;5414;59.782;16.378;2022-08-03T07:58:56;3.43;;;3.13;;
10725;SDS011;5414;59.782;16.378;2022-08-03T08:01:23;3.40;;;2.73;;
10725;SDS011;5414;59.782;16.378;2022-08-03T08:03:49;3.40;;;3.10;;
10725;SDS011;5414;59.782;16.378;2022-08-03T08:06:15;2.80;;;2.60;;
10725;SDS011;5414;59.782;16.378;2022-08-03T08:08:42;5.23;;;3.40;;
10725;SDS011;5414;59.782;16.378;2022-08-03T08:11:08;3.13;;;2.70;;
10725;SDS011;5414;59.782;16.378;2022-08-03T08:13:34;2.90;;;2.60;;
10725;SDS011;5414;59.782;16.378;2022-08-03T08:16:02;4.00;;;3.00;;
10725;SDS011;5414;59.782;16.378;2022-08-03T08:18:28;2.77;;;2.57;;
10725;SDS011;5414;59.782;16.378;2022-08-03T08:20:55;4.77;;;2.80;;
10725;SDS011;5414;59.782;16.378;2022-08-03T08:23:21;3.07;;;2.60;;
10725;SDS011;5414;59.782;16.378;2022-08-03T08:25:48;2.80;;;2.60;;
10725;SDS011;5414;59.782;16.378;2022-08-03T08:28:17;3.13;;;2.83;;
10725;SDS011;5414;59.782;16.378;2022-08-03T08:30:44;2.80;;;2.60;;
10725;SDS011;5414;59.782;16.378;2022-08-03T08:33:10;2.63;;;2.43;;
10725;SDS011;5414;59.782;16.378;2022-08-03T08:35:36;3.00;;;2.70;;
10725;SDS011;5414;59.782;16.378;2022-08-03T08:38:02;3.17;;;2.90;;
10725;SDS011;5414;59.782;16.378;2022-08-03T08:40:28;2.33;;;2.23;;
10725;SDS011;5414;59.782;16.378;2022-08-03T08:42:54;2.63;;;2.40;;
10725;SDS011;5414;59.782;16.378;2022-08-03T08:45:20;2.50;;;2.30;;
10725;SDS011;5414;59.782;16.378;2022-08-03T08:47:47;2.50;;;2.30;;
10725;SDS011;5414;59.782;16.378;2022-08-03T08:50:15;3.77;;;2.30;;
10725;SDS011;5414;59.782;16.378;2022-08-03T08:52:42;2.70;;;2.40;;
10725;SDS011;5414;59.782;16.378;2022-08-03T08:55:12;3.13;;;2.03;;
10725;SDS011;5414;59.782;16.378;2022-08-03T08:57:43;2.53;;;2.30;;
10725;SDS011;5414;59.782;16.378;2022-08-03T09:00:10;2.80;;;2.60;;
10725;SDS011;5414;59.782;16.378;2022-08-03T09:02:38;2.50;;;2.30;;
10725;SDS011;5414;59.782;16.378;2022-08-03T09:05:11;2.50;;;2.30;;
10725;SDS011;5414;59.782;16.378;2022-08-03T09:07:38;2.90;;;2.40;;
10725;SDS011;5414;59.782;16.378;2022-08-03T09:10:05;2.37;;;2.20;;
10725;SDS011;5414;59.782;16.378;2022-08-03T09:12:35;2.30;;;2.10;;
10725;SDS011;5414;59.782;16.378;2022-08-03T09:15:15;2.50;;;2.17;;
10725;SDS011;5414;59.782;16.378;2022-08-03T09:17:41;2.83;;;2.63;;
10725;SDS011;5414;59.782;16.378;2022-08-03T09:20:07;2.70;;;2.50;;
10725;SDS011;5414;59.782;16.378;2022-08-03T09:22:34;2.60;;;2.40;;
10725;SDS011;5414;59.782;16.378;2022-08-03T09:25:04;2.63;;;2.20;;
10725;SDS011;5414;59.782;16.378;2022-08-03T09:27:42;3.20;;;2.30;;
10725;SDS011;5414;59.782;16.378;2022-08-03T09:30:15;2.33;;;2.10;;
10725;SDS011;5414;59.782;16.378;2022-08-03T09:32:41;3.30;;;2.20;;
10725;SDS011;5414;59.782;16.378;2022-08-03T09:35:09;2.20;;;2.00;;
10725;SDS011;5414;59.782;16.378;2022-08-03T09:37:36;2.27;;;2.07;;
10725;SDS011;5414;59.782;16.378;2022-08-03T09:40:02;2.13;;;1.93;;
10725;SDS011;5414;59.782;16.378;2022-08-03T09:42:28;2.30;;;1.90;;
10725;SDS011;5414;59.782;16.378;2022-08-03T09:44:55;3.37;;;1.87;;
10725;SDS011;5414;59.782;16.378;2022-08-03T09:47:33;2.33;;;2.10;;
10725;SDS011;5414;59.782;16.378;2022-08-03T09:50:07;2.10;;;2.00;;
10725;SDS011;5414;59.782;16.378;2022-08-03T09:52:36;2.60;;;1.90;;
10725;SDS011;5414;59.782;16.378;2022-08-03T09:55:09;1.90;;;1.80;;
10725;SDS011;5414;59.782;16.378;2022-08-03T09:57:36;2.17;;;2.07;;
10725;SDS011;5414;59.782;16.378;2022-08-03T10:00:12;2.80;;;1.90;;
10725;SDS011;5414;59.782;16.378;2022-08-03T10:02:39;3.67;;;2.00;;
10725;SDS011;5414;59.782;16.378;2022-08-03T10:05:06;2.93;;;2.00;;
10725;SDS011;5414;59.782;16.378;2022-08-03T10:07:43;2.40;;;2.20;;
10725;SDS011;5414;59.782;16.378;2022-08-03T10:10:10;2.53;;;2.33;;
10725;SDS011;5414;59.782;16.378;2022-08-03T10:12:36;1.90;;;1.80;;
10725;SDS011;5414;59.782;16.378;2022-08-03T10:15:06;2.10;;;2.00;;
10725;SDS011;5414;59.782;16.378;2022-08-03T10:17:32;2.57;;;2.27;;
10725;SDS011;5414;59.782;16.378;2022-08-03T10:19:58;2.30;;;2.10;;
10725;SDS011;5414;59.782;16.378;2022-08-03T10:22:29;2.10;;;2.00;;
10725;SDS011;5414;59.782;16.378;2022-08-03T10:27:24;3.07;;;2.03;;
10725;SDS011;5414;59.782;16.378;2022-08-03T10:29:51;2.20;;;2.10;;
10725;SDS011;5414;59.782;16.378;2022-08-03T10:32:29;2.07;;;1.93;;
10725;SDS011;5414;59.782;16.378;2022-08-03T10:35:01;1.83;;;1.73;;
10725;SDS011;5414;59.782;16.378;2022-08-03T10:37:28;2.47;;;2.10;;
10725;SDS011;5414;59.782;16.378;2022-08-03T10:39:55;1.67;;;1.57;;
10725;SDS011;5414;59.782;16.378;2022-08-03T10:42:23;2.90;;;1.87;;
10725;SDS011;5414;59.782;16.378;2022-08-03T10:44:51;2.80;;;2.03;;
10725;SDS011;5414;59.782;16.378;2022-08-03T10:47:19;1.80;;;1.70;;
10725;SDS011;5414;59.782;16.378;2022-08-03T10:49:46;2.60;;;2.17;;
10725;SDS011;5414;59.782;16.378;2022-08-03T10:52:13;1.93;;;1.80;;
10725;SDS011;5414;59.782;16.378;2022-08-03T10:54:40;2.10;;;1.90;;
10725;SDS011;5414;59.782;16.378;2022-08-03T10:58:08;2.30;;;2.10;;
10725;SDS011;5414;59.782;16.378;2022-08-03T11:00:20;2.27;;;2.17;;
10725;SDS011;5414;59.782;16.378;2022-08-03T11:03:09;2.40;;;2.20;;
10725;SDS011;5414;59.782;16.378;2022-08-03T11:05:36;2.10;;;2.00;;
10725;SDS011;5414;59.782;16.378;2022-08-03T11:10:48;2.20;;;2.10;;
10725;SDS011;5414;59.782;16.378;2022-08-03T11:13:15;2.40;;;2.20;;
10725;SDS011;5414;59.782;16.378;2022-08-03T11:15:43;2.37;;;2.17;;
10725;SDS011;5414;59.782;16.378;2022-08-03T11:18:10;2.53;;;2.13;;
10725;SDS011;5414;59.782;16.378;2022-08-03T11:20:46;2.33;;;2.10;;
10725;SDS011;5414;59.782;16.378;2022-08-03T11:23:13;2.60;;;2.10;;
10725;SDS011;5414;59.782;16.378;2022-08-03T11:28:38;2.30;;;2.10;;
10725;SDS011;5414;59.782;16.378;2022-08-03T11:34:02;1.97;;;1.83;;
10725;SDS011;5414;59.782;16.378;2022-08-03T11:36:28;2.47;;;1.87;;
10725;SDS011;5414;59.782;16.378;2022-08-03T11:39:13;3.17;;;1.90;;
10725;SDS011;5414;59.782;16.378;2022-08-03T11:41:40;2.23;;;1.90;;
10725;SDS011;5414;59.782;16.378;2022-08-03T11:44:06;1.97;;;1.70;;
10725;SDS011;5414;59.782;16.378;2022-08-03T11:46:36;2.10;;;1.90;;
10725;SDS011;5414;59.782;16.378;2022-08-03T11:49:04;2.33;;;1.90;;
10725;SDS011;5414;59.782;16.378;2022-08-03T11:51:33;2.00;;;1.90;;
10725;SDS011;5414;59.782;16.378;2022-08-03T11:54:04;2.20;;;2.00;;
10725;SDS011;5414;59.782;16.378;2022-08-03T11:56:47;3.13;;;2.00;;
10725;SDS011;5414;59.782;16.378;2022-08-03T11:59:13;2.07;;;1.90;;
10725;SDS011;5414;59.782;16.378;2022-08-03T12:01:39;2.10;;;1.90;;
10725;SDS011;5414;59.782;16.378;2022-08-03T12:04:05;2.20;;;1.97;;
10725;SDS011;5414;59.782;16.378;2022-08-03T12:06:32;2.30;;;2.10;;
10725;SDS011;5414;59.782;16.378;2022-08-03T12:09:17;2.47;;;2.27;;
10725;SDS011;5414;59.782;16.378;2022-08-03T12:11:46;3.00;;;2.20;;
10725;SDS011;5414;59.782;16.378;2022-08-03T12:14:15;2.43;;;2.17;;
10725;SDS011;5414;59.782;16.378;2022-08-03T12:16:45;2.43;;;2.23;;
10725;SDS011;5414;59.782;16.378;2022-08-03T12:19:11;2.60;;;2.40;;
10725;SDS011;5414;59.782;16.378;2022-08-03T12:21:49;2.77;;;2.57;;
10725;SDS011;5414;59.782;16.378;2022-08-03T12:24:15;3.47;;;2.27;;
10725;SDS011;5414;59.782;16.378;2022-08-03T12:26:45;2.53;;;2.33;;
10725;SDS011;5414;59.782;16.378;2022-08-03T12:29:18;3.37;;;2.47;;
10725;SDS011;5414;59.782;16.378;2022-08-03T12:31:44;2.80;;;2.60;;
10725;SDS011;5414;59.782;16.378;2022-08-03T12:34:10;2.93;;;2.73;;
10725;SDS011;5414;59.782;16.378;2022-08-03T12:36:37;3.10;;;2.80;;
10725;SDS011;5414;59.782;16.378;2022-08-03T12:39:04;2.83;;;2.60;;
10725;SDS011;5414;59.782;16.378;2022-08-03T12:41:35;2.80;;;2.60;;
10725;SDS011;5414;59.782;16.378;2022-08-03T12:44:05;2.63;;;2.43;;
10725;SDS011;5414;59.782;16.378;2022-08-03T12:51:24;3.30;;;3.00;;
10725;SDS011;5414;59.782;16.378;2022-08-03T12:53:55;2.80;;;2.60;;
10725;SDS011;5414;59.782;16.378;2022-08-03T12:56:21;2.70;;;2.50;;
10725;SDS011;5414;59.782;16.378;2022-08-03T12:58:47;3.53;;;2.80;;
10725;SDS011;5414;59.782;16.378;2022-08-03T13:01:14;2.90;;;2.70;;
10725;SDS011;5414;59.782;16.378;2022-08-03T13:03:45;2.73;;;2.50;;
10725;SDS011;5414;59.782;16.378;2022-08-03T13:06:15;3.07;;;2.80;;
10725;SDS011;5414;59.782;16.378;2022-08-03T13:08:41;3.53;;;2.97;;
10725;SDS011;5414;59.782;16.378;2022-08-03T13:11:17;3.40;;;2.37;;
10725;SDS011;5414;59.782;16.378;2022-08-03T13:13:45;3.33;;;2.43;;
10725;SDS011;5414;59.782;16.378;2022-08-03T13:16:11;3.30;;;3.00;;
10725;SDS011;5414;59.782;16.378;2022-08-03T13:18:37;2.87;;;2.67;;
10725;SDS011;5414;59.782;16.378;2022-08-03T13:21:03;3.50;;;3.00;;
10725;SDS011;5414;59.782;16.378;2022-08-03T13:23:29;2.97;;;2.77;;
10725;SDS011;5414;59.782;16.378;2022-08-03T13:25:55;3.67;;;3.03;;
10725;SDS011;5414;59.782;16.378;2022-08-03T13:28:22;4.73;;;3.07;;
10725;SDS011;5414;59.782;16.378;2022-08-03T13:30:48;4.03;;;3.10;;
10725;SDS011;5414;59.782;16.378;2022-08-03T13:33:15;4.67;;;3.10;;
10725;SDS011;5414;59.782;16.378;2022-08-03T13:35:41;3.67;;;3.00;;
10725;SDS011;5414;59.782;16.378;2022-08-03T13:38:07;4.77;;;3.20;;
10725;SDS011;5414;59.782;16.378;2022-08-03T13:40:33;4.07;;;3.17;;
10725;SDS011;5414;59.782;16.378;2022-08-03T13:43:00;4.60;;;3.30;;
10725;SDS011;5414;59.782;16.378;2022-08-03T13:45:26;5.70;;;3.30;;
10725;SDS011;5414;59.782;16.378;2022-08-03T13:47:52;3.50;;;3.20;;
10725;SDS011;5414;59.782;16.378;2022-08-03T13:50:19;3.83;;;3.53;;
10725;SDS011;5414;59.782;16.378;2022-08-03T13:52:45;4.57;;;3.50;;
10725;SDS011;5414;59.782;16.378;2022-08-03T13:55:11;3.57;;;3.17;;
10725;SDS011;5414;59.782;16.378;2022-08-03T13:57:37;4.73;;;3.43;;
10725;SDS011;5414;59.782;16.378;2022-08-03T14:00:04;3.90;;;3.60;;
10725;SDS011;5414;59.782;16.378;2022-08-03T14:02:31;4.73;;;3.60;;
10725;SDS011;5414;59.782;16.378;2022-08-03T14:04:57;3.33;;;3.07;;
10725;SDS011;5414;59.782;16.378;2022-08-03T14:07:23;4.33;;;3.43;;
10725;SDS011;5414;59.782;16.378;2022-08-03T14:09:49;3.80;;;3.40;;
10725;SDS011;5414;59.782;16.378;2022-08-03T14:12:15;5.83;;;3.70;;
10725;SDS011;5414;59.782;16.378;2022-08-03T14:14:41;4.73;;;3.40;;
10725;SDS011;5414;59.782;16.378;2022-08-03T14:17:08;3.63;;;3.33;;
10725;SDS011;5414;59.782;16.378;2022-08-03T14:19:34;4.63;;;3.60;;
10725;SDS011;5414;59.782;16.378;2022-08-03T14:22:00;3.60;;;3.30;;
10725;SDS011;5414;59.782;16.378;2022-08-03T14:24:26;3.87;;;3.57;;
10725;SDS011;5414;59.782;16.378;2022-08-03T14:26:52;4.80;;;3.80;;
10725;SDS011;5414;59.782;16.378;2022-08-03T14:29:18;4.67;;;3.37;;
10725;SDS011;5414;59.782;16.378;2022-08-03T14:31:44;4.53;;;3.60;;
10725;SDS011;5414;59.782;16.378;2022-08-03T14:34:10;3.63;;;3.33;;
10725;SDS011;5414;59.782;16.378;2022-08-03T14:36:36;4.03;;;3.60;;
10725;SDS011;5414;59.782;16.378;2022-08-03T14:39:02;5.37;;;3.70;;
10725;SDS011;5414;59.782;16.378;2022-08-03T14:41:28;4.67;;;3.70;;
10725;SDS011;5414;59.782;16.378;2022-08-03T14:43:54;3.80;;;3.50;;
10725;SDS011;5414;59.782;16.378;2022-08-03T14:46:21;6.20;;;4.10;;
10725;SDS011;5414;59.782;16.378;2022-08-03T14:48:47;4.13;;;3.70;;
10725;SDS011;5414;59.782;16.378;2022-08-03T14:51:13;4.60;;;3.80;;
10725;SDS011;5414;59.782;16.378;2022-08-03T14:53:39;6.43;;;3.73;;
10725;SDS011;5414;59.782;16.378;2022-08-03T14:56:05;4.27;;;3.80;;
10725;SDS011;5414;59.782;16.378;2022-08-03T14:58:32;5.40;;;3.93;;
10725;SDS011;5414;59.782;16.378;2022-08-03T15:00:58;6.07;;;4.20;;
10725;SDS011;5414;59.782;16.378;2022-08-03T15:03:24;4.50;;;4.03;;
10725;SDS011;5414;59.782;16.378;2022-08-03T15:05:51;5.17;;;4.23;;
10725;SDS011;5414;59.782;16.378;2022-08-03T15:08:17;6.50;;;4.67;;
10725;SDS011;5414;59.782;16.378;2022-08-03T15:10:43;5.23;;;4.47;;
10725;SDS011;5414;59.782;16.378;2022-08-03T15:13:10;4.80;;;4.20;;
10725;SDS011;5414;59.782;16.378;2022-08-03T15:15:36;5.83;;;4.60;;
10725;SDS011;5414;59.782;16.378;2022-08-03T15:18:02;5.70;;;5.07;;
10725;SDS011;5414;59.782;16.378;2022-08-03T15:20:28;6.83;;;4.87;;